ADN2 EDDV-EDDG
Flight info
| Callsign | ADN2 |
|---|---|
| Flight time | 0h 20m |
| Altitude | 16000 |
| Route | VAXEV1S VAXEV Z718 OSN |
| Aircraft | C750/M-SBDE3GHRWXY/S |
Departure
| Time | 2026-04-23 13:36 |
|---|---|
| Airport | Hannover Airport (EDDV) |
Arrival
| Time | 2026-04-23 13:56 |
|---|---|
| Airport | Münster Osnabrück Airport (EDDG) |
| Time | Latitude | Longitude | Altitude | Speed | Heading |
|---|---|---|---|---|---|
| 2026-04-23 13:22 | 52.46304 | 9.69257 | 176 ft | 0 kts | 112° |
| 2026-04-23 13:28 | 52.46303 | 9.69262 | 176 ft | 0 kts | 112° |
| 2026-04-23 13:28 | 52.46300 | 9.69279 | 176 ft | 2 kts | 90° |
| 2026-04-23 13:28 | 52.46322 | 9.69288 | 176 ft | 6 kts | 343° |
| 2026-04-23 13:28 | 52.46386 | 9.69275 | 176 ft | 10 kts | 37° |
| 2026-04-23 13:29 | 52.46396 | 9.69339 | 176 ft | 5 kts | 88° |
| 2026-04-23 13:29 | 52.46416 | 9.69436 | 176 ft | 13 kts | 64° |
| 2026-04-23 13:29 | 52.46454 | 9.69615 | 177 ft | 20 kts | 71° |
| 2026-04-23 13:29 | 52.46512 | 9.69862 | 176 ft | 18 kts | 62° |
| 2026-04-23 13:30 | 52.46595 | 9.69948 | 174 ft | 11 kts | 1° |
| 2026-04-23 13:30 | 52.46600 | 9.69948 | 174 ft | 0 kts | 2° |
| 2026-04-23 13:31 | 52.46601 | 9.69948 | 174 ft | 0 kts | 2° |
| 2026-04-23 13:31 | 52.46614 | 9.69949 | 174 ft | 2 kts | 2° |
| 2026-04-23 13:32 | 52.46640 | 9.69950 | 174 ft | 4 kts | 1° |
| 2026-04-23 13:32 | 52.46680 | 9.69949 | 173 ft | 6 kts | 348° |
| 2026-04-23 13:32 | 52.46698 | 9.69886 | 172 ft | 7 kts | 264° |
| 2026-04-23 13:32 | 52.46698 | 9.69852 | 172 ft | 0 kts | 272° |
| 2026-04-23 13:34 | 52.46698 | 9.69851 | 172 ft | 0 kts | 271° |
| 2026-04-23 13:34 | 52.46698 | 9.69844 | 172 ft | 0 kts | 271° |
| 2026-04-23 13:35 | 52.46698 | 9.69831 | 172 ft | 1 kts | 271° |
| 2026-04-23 13:35 | 52.46705 | 9.69580 | 173 ft | 71 kts | 272° |
| 2026-04-23 13:35 | 52.46742 | 9.68170 | 183 ft | 170 kts | 273° |
| 2026-04-23 13:35 | 52.46814 | 9.65916 | 727 ft | 221 kts | 275° |
| 2026-04-23 13:36 | 52.46894 | 9.63387 | 1533 ft | 251 kts | 276° |
| 2026-04-23 13:36 | 52.46967 | 9.60467 | 2606 ft | 269 kts | 276° |
| 2026-04-23 13:36 | 52.47063 | 9.57071 | 2616 ft | 324 kts | 274° |
| 2026-04-23 13:36 | 52.46612 | 9.53187 | 2687 ft | 354 kts | 251° |
| 2026-04-23 13:37 | 52.45837 | 9.49861 | 2198 ft | 312 kts | 258° |
| 2026-04-23 13:37 | 52.45217 | 9.46712 | 2044 ft | 273 kts | 253° |
| 2026-04-23 13:37 | 52.44628 | 9.43938 | 2026 ft | 244 kts | 257° |
| 2026-04-23 13:37 | 52.44092 | 9.41352 | 2032 ft | 236 kts | 256° |
| 2026-04-23 13:38 | 52.43593 | 9.38913 | 2061 ft | 243 kts | 256° |
| 2026-04-23 13:38 | 52.43035 | 9.36227 | 2039 ft | 254 kts | 256° |
| 2026-04-23 13:38 | 52.42451 | 9.33424 | 2067 ft | 266 kts | 255° |
| 2026-04-23 13:38 | 52.41856 | 9.30584 | 2060 ft | 258 kts | 255° |
| 2026-04-23 13:39 | 52.41305 | 9.27968 | 2053 ft | 244 kts | 255° |
| 2026-04-23 13:39 | 52.40767 | 9.25388 | 2048 ft | 233 kts | 256° |
| 2026-04-23 13:39 | 52.40282 | 9.22936 | 2048 ft | 221 kts | 262° |
| 2026-04-23 13:39 | 52.40139 | 9.20443 | 2063 ft | 215 kts | 271° |
| 2026-04-23 13:40 | 52.40029 | 9.18091 | 2077 ft | 219 kts | 269° |
| 2026-04-23 13:40 | 52.39906 | 9.15563 | 2471 ft | 223 kts | 269° |
| 2026-04-23 13:40 | 52.39777 | 9.13028 | 3086 ft | 223 kts | 270° |
| 2026-04-23 13:40 | 52.39652 | 9.10519 | 3659 ft | 222 kts | 271° |
| 2026-04-23 13:41 | 52.39434 | 9.08148 | 4144 ft | 230 kts | 258° |
| 2026-04-23 13:41 | 52.38823 | 9.05681 | 4645 ft | 235 kts | 254° |
| 2026-04-23 13:41 | 52.38228 | 9.03191 | 5147 ft | 238 kts | 254° |
| 2026-04-23 13:41 | 52.37635 | 9.00735 | 5628 ft | 241 kts | 255° |
| 2026-04-23 13:42 | 52.37038 | 8.98247 | 6108 ft | 243 kts | 254° |
| 2026-04-23 13:42 | 52.36421 | 8.95683 | 6586 ft | 246 kts | 254° |
| 2026-04-23 13:42 | 52.35795 | 8.93086 | 7076 ft | 248 kts | 254° |
| 2026-04-23 13:42 | 52.35156 | 8.90425 | 7546 ft | 250 kts | 254° |
| 2026-04-23 13:43 | 52.34568 | 8.87990 | 7968 ft | 253 kts | 254° |
| 2026-04-23 13:43 | 52.33884 | 8.85159 | 8292 ft | 263 kts | 254° |
| 2026-04-23 13:43 | 52.33183 | 8.82239 | 8338 ft | 281 kts | 253° |
| 2026-04-23 13:43 | 52.32435 | 8.79147 | 8345 ft | 299 kts | 253° |
| 2026-04-23 13:44 | 52.31715 | 8.76190 | 8340 ft | 309 kts | 253° |
| 2026-04-23 13:44 | 52.30871 | 8.72728 | 8354 ft | 317 kts | 253° |
| 2026-04-23 13:44 | 52.30046 | 8.69343 | 8387 ft | 323 kts | 253° |
| 2026-04-23 13:44 | 52.29195 | 8.65864 | 8444 ft | 328 kts | 252° |
| 2026-04-23 13:45 | 52.28427 | 8.62720 | 8491 ft | 324 kts | 252° |
| 2026-04-23 13:45 | 52.27606 | 8.59381 | 8497 ft | 307 kts | 252° |
| 2026-04-23 13:45 | 52.26824 | 8.56197 | 8468 ft | 292 kts | 253° |
| 2026-04-23 13:45 | 52.26089 | 8.53211 | 8405 ft | 278 kts | 253° |
| 2026-04-23 13:46 | 52.25396 | 8.50385 | 8169 ft | 273 kts | 253° |
| 2026-04-23 13:46 | 52.24701 | 8.47549 | 7759 ft | 272 kts | 253° |
| 2026-04-23 13:46 | 52.23996 | 8.44675 | 7313 ft | 272 kts | 253° |
| 2026-04-23 13:46 | 52.23301 | 8.41850 | 6872 ft | 271 kts | 253° |
| 2026-04-23 13:47 | 52.22629 | 8.39126 | 6450 ft | 269 kts | 253° |
| 2026-04-23 13:47 | 52.21944 | 8.36358 | 5949 ft | 266 kts | 253° |
| 2026-04-23 13:47 | 52.21254 | 8.33554 | 5430 ft | 262 kts | 253° |
| 2026-04-23 13:47 | 52.20578 | 8.30833 | 4912 ft | 263 kts | 252° |
| 2026-04-23 13:48 | 52.20039 | 8.28012 | 4520 ft | 250 kts | 270° |
| 2026-04-23 13:48 | 52.20138 | 8.25179 | 4000 ft | 244 kts | 278° |
| 2026-04-23 13:48 | 52.20237 | 8.22419 | 3462 ft | 243 kts | 277° |
| 2026-04-23 13:48 | 52.20339 | 8.19684 | 3019 ft | 236 kts | 277° |
| 2026-04-23 13:49 | 52.20498 | 8.17282 | 2946 ft | 213 kts | 290° |
| 2026-04-23 13:49 | 52.21001 | 8.15151 | 2945 ft | 195 kts | 296° |
| 2026-04-23 13:49 | 52.21477 | 8.13213 | 3009 ft | 174 kts | 296° |
| 2026-04-23 13:49 | 52.21898 | 8.11441 | 2949 ft | 160 kts | 296° |
| 2026-04-23 13:50 | 52.22038 | 8.09769 | 2942 ft | 163 kts | 265° |
| 2026-04-23 13:50 | 52.21698 | 8.07953 | 2978 ft | 162 kts | 259° |
| 2026-04-23 13:50 | 52.21365 | 8.06255 | 2997 ft | 160 kts | 260° |
| 2026-04-23 13:50 | 52.21017 | 8.04472 | 2985 ft | 165 kts | 259° |
| 2026-04-23 13:51 | 52.20667 | 8.02765 | 2989 ft | 171 kts | 258° |
| 2026-04-23 13:51 | 52.20281 | 8.00912 | 2996 ft | 178 kts | 257° |
| 2026-04-23 13:51 | 52.19878 | 7.98989 | 2994 ft | 183 kts | 257° |
| 2026-04-23 13:51 | 52.19466 | 7.97039 | 2973 ft | 179 kts | 257° |
| 2026-04-23 13:52 | 52.19078 | 7.95182 | 2970 ft | 176 kts | 257° |
| 2026-04-23 13:52 | 52.18700 | 7.93372 | 2975 ft | 173 kts | 258° |
| 2026-04-23 13:52 | 52.18318 | 7.91535 | 2899 ft | 176 kts | 257° |
| 2026-04-23 13:52 | 52.17915 | 7.89589 | 2695 ft | 184 kts | 257° |
| 2026-04-23 13:53 | 52.17501 | 7.87619 | 2454 ft | 184 kts | 257° |
| 2026-04-23 13:53 | 52.17106 | 7.85763 | 2217 ft | 181 kts | 257° |
| 2026-04-23 13:53 | 52.16712 | 7.83874 | 1980 ft | 173 kts | 257° |
| 2026-04-23 13:53 | 52.16340 | 7.82133 | 1721 ft | 155 kts | 257° |
| 2026-04-23 13:54 | 52.16009 | 7.80543 | 1519 ft | 141 kts | 257° |
| 2026-04-23 13:54 | 52.15717 | 7.79151 | 1338 ft | 131 kts | 257° |
| 2026-04-23 13:54 | 52.15439 | 7.77827 | 1164 ft | 130 kts | 257° |
| 2026-04-23 13:54 | 52.15116 | 7.76255 | 1050 ft | 151 kts | 257° |
| 2026-04-23 13:55 | 52.14774 | 7.74670 | 853 ft | 154 kts | 255° |
| 2026-04-23 13:55 | 52.14443 | 7.73079 | 632 ft | 148 kts | 254° |
| 2026-04-23 13:55 | 52.14111 | 7.71558 | 444 ft | 136 kts | 254° |
| 2026-04-23 13:55 | 52.13810 | 7.70115 | 243 ft | 142 kts | 253° |
| 2026-04-23 13:56 | 52.13496 | 7.68644 | 160 ft | 124 kts | 253° |
| 2026-04-23 13:56 | 52.13326 | 7.67751 | 160 ft | 69 kts | 254° |
| 2026-04-23 13:56 | 52.13198 | 7.67178 | 161 ft | 31 kts | 248° |
| 2026-04-23 13:56 | 52.13047 | 7.67119 | 157 ft | 27 kts | 130° |
| 2026-04-23 13:57 | 52.13052 | 7.67377 | 157 ft | 23 kts | 71° |
| 2026-04-23 13:57 | 52.13106 | 7.67618 | 157 ft | 23 kts | 71° |
| 2026-04-23 13:57 | 52.13159 | 7.67873 | 157 ft | 23 kts | 72° |
| 2026-04-23 13:57 | 52.13215 | 7.68130 | 157 ft | 24 kts | 74° |
| 2026-04-23 13:58 | 52.13269 | 7.68392 | 157 ft | 24 kts | 72° |
| 2026-04-23 13:58 | 52.13324 | 7.68642 | 157 ft | 25 kts | 72° |
| 2026-04-23 13:58 | 52.13350 | 7.68820 | 160 ft | 11 kts | 111° |
| 2026-04-23 13:58 | 52.13286 | 7.68827 | 160 ft | 12 kts | 248° |
| 2026-04-23 13:59 | 52.13252 | 7.68740 | 158 ft | 7 kts | 175° |
| 2026-04-23 13:59 | 52.13220 | 7.68756 | 158 ft | 0 kts | 162° |